Time;durP1;ratioP1;P1;durP2;ratioP2;P2;SDS_P1;SDS_P2;PMS_P1;PMS_P2;Temp;Humidity;BMP_temperature;BMP_pressure;BME280_temperature;BME280_humidity;BME280_pressure;Samples;Min_cycle;Max_cycle;Signal;HPM_P1;HPM_P2
2022/03/25 00:01:01;;;;;;;40.25;23.58;;;5.70;99.90;;;5.54;100.00;98542.94;5007073;28;20130;-74
2022/03/25 00:03:29;;;;;;;43.10;25.48;;;5.70;99.90;;;5.50;100.00;98536.97;5009831;28;20390;-74
2022/03/25 00:05:57;;;;;;;36.00;22.98;;;5.60;99.90;;;5.43;100.00;98536.16;5002915;28;20146;-73
2022/03/25 00:08:24;;;;;;;40.97;22.92;;;5.60;99.90;;;5.39;100.00;98533.59;5025646;28;20046;-74
2022/03/25 00:10:53;;;;;;;40.28;24.83;;;5.50;99.90;;;5.54;100.00;98537.78;5010183;28;20139;-73
2022/03/25 00:13:20;;;;;;;47.47;27.58;;;5.50;99.90;;;5.47;100.00;98538.69;5022620;28;20046;-73
2022/03/25 00:15:47;;;;;;;42.75;25.20;;;5.60;99.90;;;5.56;100.00;98541.22;5003158;28;20120;-74
2022/03/25 00:18:14;;;;;;;34.95;23.33;;;5.60;99.90;;;5.34;100.00;98545.66;5005332;28;20050;-75
2022/03/25 00:20:41;;;;;;;44.10;26.05;;;5.60;99.90;;;5.11;100.00;98538.91;5008302;28;20100;-73
2022/03/25 00:23:09;;;;;;;38.08;23.55;;;5.50;99.90;;;5.27;100.00;98538.81;5006007;28;20057;-74
2022/03/25 00:25:36;;;;;;;38.30;24.25;;;5.40;99.90;;;5.27;100.00;98531.97;5004730;28;20320;-74
2022/03/25 00:28:04;;;;;;;41.85;25.83;;;5.30;99.90;;;5.06;100.00;98537.22;5006980;28;20119;-74
2022/03/25 00:30:31;;;;;;;41.05;24.95;;;5.30;99.90;;;5.09;100.00;98532.94;5003105;28;20396;-73
2022/03/25 00:32:58;;;;;;;36.60;25.40;;;5.30;99.90;;;5.03;100.00;98532.94;5008127;28;20065;-75
2022/03/25 00:35:26;;;;;;;43.92;25.63;;;5.20;99.90;;;4.87;100.00;98536.47;5001993;28;20046;-75
2022/03/25 00:37:53;;;;;;;44.10;26.65;;;5.10;99.90;;;4.68;100.00;98530.53;5007210;28;20065;-75
2022/03/25 00:40:20;;;;;;;46.58;28.00;;;5.00;99.90;;;4.74;100.00;98533.91;5004111;28;20046;-75
2022/03/25 00:42:47;;;;;;;46.80;28.42;;;4.90;99.90;;;4.79;100.00;98529.63;5021305;28;20115;-75
2022/03/25 00:45:14;;;;;;;47.33;29.02;;;4.90;99.90;;;4.50;100.00;98521.16;5004725;28;20634;-74
2022/03/25 00:47:42;;;;;;;46.50;28.73;;;5.00;99.90;;;4.32;100.00;98522.06;5005513;28;20050;-74
2022/03/25 00:50:11;;;;;;;43.63;26.85;;;4.90;99.90;;;4.50;100.00;98518.59;5000596;28;20117;-74
2022/03/25 00:52:38;;;;;;;42.70;26.70;;;4.80;99.90;;;4.46;100.00;98520.31;5007786;28;20172;-74
2022/03/25 00:55:06;;;;;;;43.83;25.40;;;4.80;99.90;;;4.50;100.00;98522.03;5004404;28;20060;-74
2022/03/25 00:57:34;;;;;;;41.92;24.65;;;4.80;99.90;;;4.44;100.00;98518.63;5008467;28;20046;-74
2022/03/25 01:00:01;;;;;;;40.80;24.60;;;4.70;99.90;;;4.45;100.00;98513.47;5000844;28;20070;-74
2022/03/25 01:02:29;;;;;;;43.75;28.48;;;4.70;99.90;;;4.10;100.00;98526.38;5006577;28;20050;-74
2022/03/25 01:04:56;;;;;;;39.72;24.15;;;4.50;99.90;;;4.21;100.00;98527.22;5001145;28;20067;-73
2022/03/25 01:07:23;;;;;;;42.88;26.23;;;4.50;99.90;;;4.10;100.00;98516.97;5002460;28;20588;-73
2022/03/25 01:09:51;;;;;;;43.55;26.10;;;4.40;99.90;;;4.10;100.00;98514.38;4989287;28;20496;-74
2022/03/25 01:12:20;;;;;;;39.55;23.85;;;4.40;99.90;;;4.03;100.00;98516.97;5004624;28;20645;-74
2022/03/25 01:14:48;;;;;;;44.47;26.85;;;4.30;99.90;;;3.98;100.00;98514.44;5006745;28;20107;-74
2022/03/25 01:17:16;;;;;;;39.28;24.65;;;4.30;99.90;;;4.08;100.00;98512.69;5002598;28;20096;-74
2022/03/25 01:19:45;;;;;;;40.95;24.40;;;4.30;99.90;;;3.87;100.00;98509.28;5004071;28;20117;-74
2022/03/25 01:22:12;;;;;;;41.05;24.20;;;4.30;99.90;;;4.17;100.00;98510.09;5000340;28;20134;-73
2022/03/25 01:24:39;;;;;;;45.25;26.13;;;4.30;99.90;;;4.08;100.00;98517.81;5002986;28;20201;-74
2022/03/25 01:27:06;;;;;;;50.22;28.70;;;4.30;99.90;;;4.07;100.00;98508.41;5003528;28;20049;-73
2022/03/25 01:29:33;;;;;;;46.78;26.42;;;4.30;99.90;;;4.04;100.00;98514.44;5007110;28;20045;-76
2022/03/25 01:32:01;;;;;;;48.90;28.13;;;4.30;99.90;;;3.96;100.00;98505.84;5003863;28;20145;-75
2022/03/25 01:34:29;;;;;;;44.63;28.05;;;4.30;99.90;;;4.08;100.00;98502.41;5005980;28;20054;-78
2022/03/25 01:36:56;;;;;;;47.72;26.52;;;;;;;3.98;100.00;98512.69;5005074;28;20045;-75
2022/03/25 01:39:23;;;;;;;44.47;25.90;;;4.20;99.90;;;4.08;100.00;98504.97;5019939;28;20046;-75
2022/03/25 01:41:50;;;;;;;50.22;26.85;;;4.20;99.90;;;4.06;100.00;98504.13;4988949;28;20049;-74
2022/03/25 01:44:29;;;;;;;41.80;25.70;;;4.20;99.90;;;4.02;100.00;98507.59;5006221;28;20053;-74
2022/03/25 01:46:59;;;;;;;41.80;26.70;;;4.20;99.90;;;4.02;100.00;98502.44;5003056;28;20053;-74
2022/03/25 01:49:26;;;;;;;41.35;25.77;;;4.10;99.90;;;4.01;100.00;98503.28;5008204;28;20088;-73
2022/03/25 01:51:59;;;;;;;46.17;26.90;;;4.10;99.90;;;3.61;100.00;98503.31;5020063;28;20061;-74
2022/03/25 01:54:30;;;;;;;46.33;26.90;;;4.10;99.90;;;3.71;100.00;98498.16;5001015;28;20057;-74
2022/03/25 01:57:02;;;;;;;40.63;25.30;;;4.00;99.90;;;3.78;100.00;98499.03;5005108;28;20400;-74
2022/03/25 01:59:30;;;;;;;41.00;25.83;;;3.90;99.90;;;3.76;100.00;98496.47;5004688;28;20061;-74
2022/03/25 02:02:00;;;;;;;41.08;26.60;;;3.90;99.90;;;3.85;100.00;98497.31;5004224;28;20136;-74
2022/03/25 02:04:27;;;;;;;43.75;25.88;;;3.90;99.90;;;3.76;100.00;98501.63;4998363;28;20054;-75
2022/03/25 02:06:55;;;;;;;42.35;25.63;;;3.80;99.90;;;3.77;100.00;98499.91;5006571;28;20052;-74
2022/03/25 02:09:22;;;;;;;46.90;27.52;;;3.80;99.90;;;3.66;100.00;98497.31;5004305;28;20050;-74
2022/03/25 02:11:49;;;;;;;44.22;26.15;;;3.80;99.90;;;3.65;100.00;98495.63;5002994;28;20476;-74
2022/03/25 02:14:19;;;;;;;41.53;26.90;;;3.70;99.90;;;3.56;100.00;98496.47;5005088;28;20108;-74
2022/03/25 02:16:48;;;;;;;43.45;26.00;;;3.60;99.90;;;3.53;100.00;98493.88;5005047;28;20042;-74
2022/03/25 02:19:18;;;;;;;40.42;26.02;;;3.60;99.90;;;3.41;100.00;98495.63;4997068;28;20065;-75
2022/03/25 02:21:47;;;;;;;43.30;26.45;;;3.50;99.90;;;3.43;100.00;98492.19;4997155;28;20074;-75
2022/03/25 02:24:15;;;;;;;42.72;27.38;;;3.50;99.90;;;3.47;100.00;98493.91;5000503;28;20066;-75
2022/03/25 02:26:44;;;;;;;44.97;26.98;;;3.40;99.90;;;3.32;100.00;98491.31;5005509;28;20082;-74
2022/03/25 02:29:14;;;;;;;40.97;25.45;;;3.40;99.90;;;3.41;100.00;98491.31;5021091;28;20046;-74
2022/03/25 02:31:42;;;;;;;38.92;25.02;;;3.40;99.90;;;3.34;100.00;98494.75;5000708;28;20045;-74
2022/03/25 02:34:11;;;;;;;43.67;25.88;;;3.40;99.90;;;2.82;100.00;98498.06;4999032;28;20058;-75
2022/03/25 02:36:43;;;;;;;45.05;26.88;;;3.30;99.90;;;2.69;100.00;98496.28;5003156;28;20049;-73
2022/03/25 02:39:13;;;;;;;41.97;26.48;;;3.30;99.90;;;2.73;100.00;98490.34;4989789;28;20058;-73
2022/03/25 02:41:41;;;;;;;46.10;26.00;;;3.30;99.90;;;2.66;100.00;98491.16;5004510;28;20053;-75
2022/03/25 02:44:10;;;;;;;42.53;26.77;;;3.30;99.90;;;2.51;100.00;98490.25;5000419;28;20077;-75
2022/03/25 02:46:38;;;;;;;38.80;25.33;;;3.20;99.90;;;2.47;100.00;98493.66;4998349;28;20500;-75
2022/03/25 02:49:05;;;;;;;42.47;28.08;;;3.20;99.90;;;2.44;100.00;98487.66;4993835;28;20073;-74
2022/03/25 02:51:32;;;;;;;42.55;28.55;;;3.10;99.90;;;2.51;100.00;98489.41;5015992;28;20074;-74
2022/03/25 02:53:59;;;;;;;44.30;30.63;;;3.10;99.90;;;2.23;100.00;98488.41;4997383;28;20500;-74
2022/03/25 02:56:26;;;;;;;47.03;33.38;;;3.10;99.90;;;2.19;100.00;98495.25;5003233;28;20416;-74
2022/03/25 02:58:53;;;;;;;55.20;34.88;;;2.90;99.90;;;2.06;100.00;98491.75;5000835;28;20078;-75
2022/03/25 03:01:20;;;;;;;52.47;33.70;;;2.80;99.90;;;1.96;100.00;98489.09;5003039;28;20064;-74
2022/03/25 03:03:48;;;;;;;51.42;34.40;;;2.80;99.90;;;2.01;100.00;98490.00;5003622;28;20049;-74
2022/03/25 03:06:15;;;;;;;48.60;32.63;;;2.80;99.90;;;1.95;100.00;98489.97;5001898;28;20128;-74
2022/03/25 03:08:41;;;;;;;47.30;32.33;;;2.80;99.90;;;2.10;100.00;98492.63;5000955;28;20046;-74
2022/03/25 03:11:09;;;;;;;45.05;30.95;;;2.80;99.90;;;2.41;100.00;98491.06;4999364;28;20105;-75
2022/03/25 03:13:35;;;;;;;51.10;31.50;;;2.80;99.90;;;2.28;100.00;98490.16;5001834;28;20496;-74
2022/03/25 03:16:03;;;;;;;44.05;30.08;;;2.90;99.90;;;2.54;100.00;98486.00;4999556;28;20719;-74
2022/03/25 03:18:30;;;;;;;46.30;31.33;;;2.80;99.90;;;2.79;100.00;98484.38;5003836;28;20058;-74
2022/03/25 03:20:58;;;;;;;46.58;30.45;;;2.90;99.90;;;2.72;100.00;98491.19;4995520;28;20457;-73
2022/03/25 03:23:25;;;;;;;45.28;30.02;;;2.80;99.90;;;2.49;100.00;98491.13;5002422;28;20652;-74
2022/03/25 03:25:52;;;;;;;48.45;31.67;;;2.80;99.90;;;2.42;100.00;98492.78;5002720;28;20129;-74
2022/03/25 03:28:19;;;;;;;43.95;29.42;;;2.70;99.90;;;2.41;100.00;98488.50;4998484;28;20137;-74
2022/03/25 03:30:46;;;;;;;48.97;31.48;;;2.60;99.90;;;2.03;100.00;98489.16;5017380;28;20503;-74
2022/03/25 03:33:13;;;;;;;46.92;30.65;;;2.60;99.90;;;2.15;100.00;98485.81;5006275;28;20058;-74
2022/03/25 03:35:41;;;;;;;46.60;29.88;;;2.60;99.90;;;2.31;100.00;98489.31;5002890;28;20061;-74
2022/03/25 03:38:08;;;;;;;46.70;30.02;;;2.50;99.90;;;2.31;100.00;98484.19;5006133;28;20135;-73
2022/03/25 03:40:37;;;;;;;45.33;29.02;;;2.50;99.90;;;2.28;100.00;98479.91;5006498;28;20105;-73
2022/03/25 03:43:04;;;;;;;47.33;30.85;;;2.50;99.90;;;2.15;100.00;98485.81;5003954;28;20064;-73
2022/03/25 03:45:34;;;;;;;47.28;30.90;;;2.40;99.90;;;2.04;100.00;98483.19;5001833;28;20100;-73
2022/03/25 03:48:01;;;;;;;48.05;32.38;;;2.40;99.90;;;2.03;100.00;98480.59;5000530;28;20126;-75
2022/03/25 03:50:28;;;;;;;44.03;29.17;;;2.40;99.90;;;2.10;100.00;98492.63;5017973;28;20050;-75
2022/03/25 03:52:55;;;;;;;45.72;30.27;;;2.40;99.90;;;2.07;100.00;98482.34;5003037;28;20444;-75
2022/03/25 03:55:22;;;;;;;40.35;28.90;;;2.30;99.90;;;2.00;100.00;98488.28;5006880;28;20046;-74
2022/03/25 03:57:49;;;;;;;47.45;30.25;;;2.30;99.90;;;1.99;100.00;98487.44;5004640;28;20142;-75
2022/03/25 04:00:17;;;;;;;44.17;30.08;;;2.30;99.90;;;1.90;100.00;98482.25;5004553;28;20050;-75
2022/03/25 04:02:44;;;;;;;46.35;31.17;;;2.30;99.90;;;1.74;100.00;98486.41;5008083;28;20060;-75
2022/03/25 04:05:12;;;;;;;49.22;33.83;;;2.30;99.90;;;1.63;100.00;98483.75;5013742;28;20092;-75
2022/03/25 04:07:48;;;;;;;45.38;30.77;;;2.20;99.90;;;1.64;100.00;98488.06;5007101;28;20137;-75
2022/03/25 04:10:18;;;;;;;49.85;33.03;;;2.10;99.90;;;1.67;100.00;98488.06;4999319;28;20072;-75
2022/03/25 04:12:45;;;;;;;48.38;30.05;;;2.10;99.90;;;1.78;100.00;98485.59;5003762;28;20129;-75
2022/03/25 04:15:12;;;;;;;47.70;32.15;;;2.00;99.90;;;1.63;100.00;98490.59;5004726;28;20117;-75
2022/03/25 04:17:41;;;;;;;51.15;34.70;;;2.00;99.90;;;1.68;100.00;98489.75;5005910;28;20356;-75
2022/03/25 04:20:13;;;;;;;44.22;31.00;;;2.00;99.90;;;1.73;100.00;98489.78;5006681;28;20054;-76
2022/03/25 04:22:41;;;;;;;43.10;31.63;;;2.10;99.90;;;1.59;100.00;98484.56;5005681;28;20440;-75
2022/03/25 04:25:09;;;;;;;47.75;32.97;;;2.10;99.90;;;1.55;100.00;98482.88;5004005;28;20065;-74
2022/03/25 04:27:54;;;;;;;49.67;34.20;;;2.00;99.90;;;1.58;100.00;98487.16;5020213;28;20141;-75
2022/03/25 04:30:34;;;;;;;47.95;32.65;;;1.90;99.90;;;1.53;100.00;98484.56;5007610;28;20046;-75
2022/03/25 04:33:02;;;;;;;52.05;33.05;;;1.90;99.90;;;1.55;100.00;98485.44;5006578;28;20066;-74
2022/03/25 04:35:30;;;;;;;48.00;33.28;;;2.00;99.90;;;1.59;100.00;98482.03;5004427;28;20535;-75
2022/03/25 04:37:58;;;;;;;47.25;31.35;;;2.00;99.90;;;1.54;100.00;98481.13;5001457;28;20089;-75
2022/03/25 04:40:28;;;;;;;47.15;32.45;;;2.00;99.90;;;1.47;100.00;98479.38;5003687;28;20042;-75
2022/03/25 04:42:58;;;;;;;47.65;31.80;;;1.90;99.90;;;1.51;100.00;98485.38;5005446;28;20133;-75
2022/03/25 04:45:26;;;;;;;50.80;33.40;;;1.90;99.90;;;1.43;100.00;98486.16;5006380;28;20137;-75
2022/03/25 04:47:54;;;;;;;49.38;33.50;;;1.90;99.90;;;1.49;100.00;98484.50;5004832;28;20050;-75
2022/03/25 04:50:21;;;;;;;50.33;32.55;;;1.80;99.90;;;1.48;100.00;98488.75;5004878;28;20046;-75
2022/03/25 04:52:49;;;;;;;48.38;33.00;;;1.80;99.90;;;1.51;100.00;98485.38;5006133;28;20066;-75
2022/03/25 04:55:18;;;;;;;46.30;31.25;;;1.80;99.90;;;1.46;100.00;98480.22;4999580;28;20417;-75
2022/03/25 04:57:46;;;;;;;47.85;30.67;;;1.80;99.90;;;1.61;100.00;98484.59;5008841;28;20473;-75
2022/03/25 05:00:15;;;;;;;52.30;32.63;;;1.80;99.90;;;1.60;100.00;98488.00;4999109;28;20046;-74
2022/03/25 05:02:42;;;;;;;50.15;31.50;;;1.80;99.90;;;1.54;100.00;98485.41;5005551;28;20050;-75
2022/03/25 05:05:10;;;;;;;50.38;30.17;;;1.70;99.90;;;1.39;100.00;98483.56;5006049;28;20057;-75
2022/03/25 05:07:42;;;;;;;49.40;32.53;;;1.70;99.90;;;1.27;100.00;98491.13;5014913;28;20464;-75
2022/03/25 05:10:13;;;;;;;54.03;33.63;;;1.70;99.90;;;1.24;100.00;98485.16;5021298;28;20074;-75
2022/03/25 05:12:41;;;;;;;51.95;33.42;;;1.70;99.90;;;1.13;100.00;98486.75;5003350;28;20049;-75
2022/03/25 05:15:10;;;;;;;56.58;36.35;;;1.70;99.90;;;1.21;100.00;98497.06;5006350;28;20042;-75
2022/03/25 05:17:50;;;;;;;53.38;36.38;;;1.70;99.90;;;1.13;100.00;98496.97;5008765;28;20128;-75
2022/03/25 05:20:19;;;;;;;54.22;35.55;;;1.70;99.90;;;1.21;100.00;98487.69;5002036;28;20125;-75
2022/03/25 05:22:47;;;;;;;49.70;33.88;;;1.70;99.90;;;1.20;100.00;98488.50;5003251;28;20200;-75
2022/03/25 05:25:16;;;;;;;48.72;33.28;;;1.70;99.90;;;1.15;100.00;98499.56;5000677;28;20125;-74
2022/03/25 05:27:57;;;;;;;51.65;33.42;;;1.60;99.90;;;1.18;100.00;98497.00;5002959;28;20046;-75
2022/03/25 05:30:31;;;;;;;47.63;32.47;;;1.60;99.90;;;1.31;100.00;98498.00;5018915;28;20081;-74
2022/03/25 05:32:59;;;;;;;46.45;32.03;;;1.60;99.90;;;1.26;100.00;98510.75;5020894;28;20073;-75
2022/03/25 05:35:28;;;;;;;52.65;33.03;;;1.70;99.90;;;1.39;100.00;98504.03;5003480;28;20092;-74
2022/03/25 05:37:56;;;;;;;49.17;33.10;;;1.70;99.90;;;1.25;100.00;98504.78;5007576;28;20160;-74
2022/03/25 05:40:25;;;;;;;47.75;31.23;;;1.70;99.90;;;1.27;100.00;98503.94;5018273;28;20065;-75
2022/03/25 05:42:54;;;;;;;47.92;32.58;;;1.70;99.90;;;1.27;100.00;98511.59;5006038;28;20136;-75
2022/03/25 05:45:22;;;;;;;49.50;31.83;;;1.70;99.90;;;1.26;100.00;98513.31;5022965;28;20077;-74
2022/03/25 05:47:50;;;;;;;45.90;31.73;;;1.70;99.90;;;1.46;100.00;98518.59;4998268;28;20046;-74
2022/03/25 05:50:18;;;;;;;50.58;32.63;;;1.70;99.90;;;1.48;100.00;98523.72;5001723;28;20480;-74
2022/03/25 05:52:46;;;;;;;52.38;33.92;;;1.80;99.90;;;1.42;100.00;98527.09;5004932;28;20116;-74
2022/03/25 05:55:16;;;;;;;49.70;33.22;;;1.80;99.90;;;1.44;100.00;98521.16;4997393;28;20074;-75
2022/03/25 05:57:43;;;;;;;50.25;31.95;;;1.90;99.90;;;1.55;100.00;98528.91;5011309;28;20085;-75
2022/03/25 06:00:13;;;;;;;55.35;34.17;;;1.90;99.90;;;1.41;100.00;98526.22;5000684;28;20879;-75
2022/03/25 06:02:43;;;;;;;50.83;34.67;;;1.90;99.90;;;1.28;100.00;98536.31;4991619;28;20416;-75
2022/03/25 06:05:11;;;;;;;52.80;34.38;;;1.90;99.90;;;1.46;100.00;98539.94;5001260;28;20073;-75
2022/03/25 06:07:41;;;;;;;48.53;32.10;;;1.90;99.90;;;1.72;100.00;98533.31;5005638;28;20061;-75
2022/03/25 06:10:11;;;;;;;49.58;32.75;;;2.00;99.90;;;1.65;100.00;98532.41;4998420;28;20089;-75
2022/03/25 06:12:39;;;;;;;49.08;32.83;;;2.10;99.90;;;1.75;100.00;98535.88;5016936;28;20073;-75
2022/03/25 06:15:08;;;;;;;50.15;33.65;;;2.10;99.90;;;1.87;100.00;98530.84;5010807;28;20538;-74
2022/03/25 06:17:45;;;;;;;43.70;32.00;;;2.30;99.90;;;2.00;100.00;98535.22;4999995;28;20532;-75
2022/03/25 06:20:16;;;;;;;50.00;35.38;;;2.30;99.90;;;1.80;100.00;98535.09;4998700;28;20052;-75
2022/03/25 06:22:44;;;;;;;51.20;35.72;;;2.40;99.90;;;1.75;100.00;98541.00;4999115;28;20560;-74
2022/03/25 06:25:13;;;;;;;53.83;36.13;;;2.30;99.90;;;1.70;100.00;98548.66;5013139;28;20081;-73
2022/03/25 06:27:50;;;;;;;57.85;37.95;;;2.30;99.90;;;1.79;100.00;98551.28;5001148;28;20078;-74
2022/03/25 06:30:20;;;;;;;55.63;38.72;;;2.40;99.90;;;1.95;100.00;98548.84;5001600;28;20121;-74
2022/03/25 06:32:48;;;;;;;58.97;38.08;;;2.40;99.90;;;2.58;100.00;98544.97;5004207;28;20100;-73
2022/03/25 06:35:15;;;;;;;60.03;37.97;;;2.80;99.90;;;2.67;100.00;98547.56;5004422;28;20176;-74
2022/03/25 06:37:43;;;;;;;52.03;34.90;;;3.00;99.90;;;3.06;100.00;98543.44;5000599;28;20053;-74
2022/03/25 06:40:12;;;;;;;52.67;33.33;;;3.30;99.90;;;3.46;100.00;98545.22;4996342;28;20125;-74
2022/03/25 06:42:41;;;;;;;58.75;38.90;;;3.70;99.90;;;3.67;100.00;98546.94;4998896;28;20652;-73
2022/03/25 06:45:11;;;;;;;56.20;36.78;;;4.00;99.90;;;3.98;100.00;98537.53;4998283;28;20057;-75
2022/03/25 06:47:38;;;;;;;52.42;29.25;;;4.30;99.90;;;4.40;100.00;98546.03;5003235;28;20578;-74
2022/03/25 06:50:07;;;;;;;56.75;31.67;;;4.60;99.90;;;4.78;100.00;98548.47;5002910;28;20485;-73
2022/03/25 06:52:35;;;;;;;55.60;31.08;;;5.00;99.90;;;5.35;100.00;98545.63;5003054;28;20058;-74
2022/03/25 06:55:03;;;;;;;64.82;32.85;;;5.50;99.90;;;5.59;100.00;98539.47;5003285;28;20412;-75
2022/03/25 06:57:30;;;;;;;52.88;29.73;;;5.80;99.90;;;5.73;100.00;98538.53;5002881;28;20161;-74
2022/03/25 06:59:58;;;;;;;56.85;30.45;;;6.00;99.90;;;5.96;100.00;98543.53;5005311;28;20065;-74
2022/03/25 07:02:25;;;;;;;54.92;30.80;;;6.30;99.90;;;6.09;100.00;98547.69;5005185;28;20344;-74
2022/03/25 07:04:53;;;;;;;53.45;30.20;;;6.50;99.90;;;6.18;100.00;98546.75;5005821;28;20045;-74
2022/03/25 07:07:26;;;;;;;53.15;30.90;;;6.70;99.90;;;6.40;100.00;98548.25;5001786;28;20471;-74
2022/03/25 07:09:54;;;;;;;56.50;30.15;;;6.80;99.90;;;6.74;100.00;98547.03;5005096;28;20736;-74
2022/03/25 07:12:22;;;;;;;54.03;31.23;;;7.10;99.90;;;6.81;100.00;98546.06;5007790;28;20125;-74
2022/03/25 07:14:48;;;;;;;59.35;31.35;;;7.20;99.90;;;6.94;100.00;98544.22;5006217;28;20046;-74
2022/03/25 07:17:15;;;;;;;56.42;31.08;;;7.40;99.90;;;7.17;100.00;98539.59;5000056;28;20132;-76
2022/03/25 07:19:42;;;;;;;54.78;30.52;;;7.60;99.90;;;7.20;100.00;98541.28;5005153;28;20132;-73
2022/03/25 07:22:10;;;;;;;50.97;29.65;;;7.70;99.90;;;7.47;100.00;98547.78;5002106;28;20152;-74
2022/03/25 07:24:37;;;;;;;56.47;32.72;;;7.90;99.90;;;7.63;100.00;98538.06;5001805;28;20054;-74
2022/03/25 07:27:04;;;;;;;53.90;30.17;;;8.10;99.90;;;7.72;100.00;98543.94;5005612;28;20129;-73
2022/03/25 07:29:32;;;;;;;51.65;31.58;;;8.20;99.90;;;7.85;100.00;98544.63;4999851;28;20100;-74
2022/03/25 07:31:59;;;;;;;55.38;31.08;;;8.40;99.90;;;7.94;100.00;98546.22;5003378;28;20047;-73
2022/03/25 07:34:26;;;;;;;57.80;30.92;;;8.40;99.90;;;8.05;100.00;98539.13;5005478;28;20089;-74
2022/03/25 07:36:53;;;;;;;52.03;31.30;;;8.60;99.90;;;8.07;100.00;98544.25;5004195;28;20133;-73
2022/03/25 07:39:20;;;;;;;51.28;29.65;;;8.70;99.90;;;8.40;100.00;98544.56;5006507;28;20109;-73
2022/03/25 07:41:47;;;;;;;50.47;30.35;;;8.80;99.90;;;8.44;100.00;98546.22;5003888;28;20050;-72
2022/03/25 07:44:14;;;;;;;57.50;30.58;;;8.90;99.90;;;8.61;100.00;98551.94;5004200;28;20496;-73
2022/03/25 07:46:41;;;;;;;56.22;31.60;;;9.00;99.90;;;8.57;100.00;98552.88;5000895;28;20108;-74
2022/03/25 07:49:08;;;;;;;56.35;31.38;;;9.20;99.90;;;8.72;100.00;98557.75;5003022;28;20058;-75
2022/03/25 07:51:35;;;;;;;50.83;30.55;;;9.20;99.90;;;8.86;100.00;98561.81;5003352;28;20049;-74
2022/03/25 07:54:03;;;;;;;48.72;29.67;;;9.30;99.90;;;9.06;100.00;98554.50;5003840;28;20439;-74
2022/03/25 07:56:30;;;;;;;51.30;30.75;;;9.50;99.90;;;9.15;100.00;98561.22;5004125;28;20054;-74
2022/03/25 07:58:59;;;;;;;61.10;31.95;;;9.60;99.90;;;9.37;100.00;98553.81;5002412;28;20437;-73
2022/03/25 08:01:27;;;;;;;54.85;30.10;;;9.80;99.90;;;9.37;100.00;98554.69;5002852;28;20042;-74
2022/03/25 08:03:55;;;;;;;50.78;29.25;;;9.90;99.50;;;9.55;100.00;98561.19;5005873;28;20151;-74
2022/03/25 08:06:23;;;;;;;47.38;29.17;;;10.20;98.90;;;9.80;100.00;98548.50;4995136;28;20058;-75
2022/03/25 08:08:50;;;;;;;49.63;30.58;;;10.50;98.00;;;9.80;100.00;98548.50;4997214;28;20077;-73
2022/03/25 08:11:20;;;;;;;53.40;31.65;;;10.90;96.70;;;10.32;100.00;98551.59;4997009;28;21808;-73
2022/03/25 08:13:50;;;;;;;53.22;31.98;;;11.20;96.00;;;10.77;100.00;98547.81;5002024;28;20716;-73
2022/03/25 08:16:17;;;;;;;50.22;31.77;;;11.40;94.60;;;11.41;100.00;98556.31;5001587;28;20078;-74
2022/03/25 08:18:44;;;;;;;53.45;32.60;;;11.70;94.50;;;11.96;100.00;98548.56;5005399;28;20145;-74
2022/03/25 08:21:11;;;;;;;46.80;31.08;;;12.00;93.70;;;12.21;100.00;98553.81;5001593;28;20112;-74
2022/03/25 08:29:10;;;;;;;47.78;32.75;;;13.30;91.50;;;13.46;99.05;98546.75;5002585;28;20066;-73
2022/03/25 08:31:45;;;;;;;46.53;31.83;;;13.50;88.60;;;13.46;100.00;98555.44;5002789;28;20153;-73
2022/03/25 08:34:15;;;;;;;46.20;31.77;;;13.60;89.00;;;14.29;100.00;98548.63;5000716;28;20058;-74
2022/03/25 08:36:48;;;;;;;43.50;31.25;;;13.90;88.20;;;14.47;97.18;98544.38;5002420;28;20119;-73
2022/03/25 08:39:17;;;;;;;44.05;31.08;;;14.10;86.60;;;15.21;96.72;98540.22;4999987;28;20551;-73
2022/03/25 08:41:44;;;;;;;50.08;31.80;;;14.30;85.20;;;15.47;91.48;98551.25;5000671;28;20173;-74
2022/03/25 08:44:11;;;;;;;46.05;31.50;;;14.60;83.60;;;15.78;90.50;98540.22;4998448;28;20084;-74
2022/03/25 08:46:39;;;;;;;48.75;33.10;;;14.80;83.10;;;15.46;89.23;98552.16;4997205;28;20050;-74
2022/03/25 08:49:10;;;;;;;43.17;32.05;;;14.90;80.40;;;16.07;91.23;98538.75;5002733;28;20100;-74
2022/03/25 08:51:37;;;;;;;39.75;30.27;;;15.40;81.40;;;16.58;89.33;98548.44;5002851;28;20050;-73
2022/03/25 08:54:04;;;;;;;41.15;31.52;;;15.50;80.50;;;16.55;88.29;98535.50;5002023;28;20210;-74
2022/03/25 08:56:31;;;;;;;41.42;31.48;;;15.60;79.60;;;16.75;87.80;98547.59;5001859;28;20089;-74
2022/03/25 08:58:58;;;;;;;41.45;31.75;;;15.70;79.60;;;16.81;86.70;98544.66;5001107;28;20127;-74
2022/03/25 09:01:26;;;;;;;48.22;32.63;;;15.70;78.80;;;15.86;87.36;98539.81;4999136;28;20047;-74
2022/03/25 09:03:54;;;;;;;42.13;32.22;;;15.90;77.70;;;16.70;86.68;98538.19;5000647;28;20080;-74
2022/03/25 09:06:21;;;;;;;40.33;30.60;;;16.10;77.70;;;17.13;86.23;98540.34;5001339;28;20046;-73
2022/03/25 09:08:50;;;;;;;43.33;31.95;;;16.20;77.10;;;17.23;85.20;98546.78;5003930;28;20046;-72
2022/03/25 09:11:17;;;;;;;43.63;32.63;;;16.30;77.30;;;17.12;82.61;98538.63;5003277;28;20056;-72
2022/03/25 09:13:44;;;;;;;42.42;31.23;;;16.50;75.80;;;18.05;81.10;98526.50;5001012;28;20111;-73
2022/03/25 09:16:13;;;;;;;44.75;32.10;;;16.70;75.70;;;17.65;82.07;98531.38;5001696;28;20050;-73
2022/03/25 09:18:40;;;;;;;47.17;33.70;;;16.70;75.10;;;16.83;82.29;98548.94;5004828;28;20046;-73
2022/03/25 09:21:08;;;;;;;45.58;33.55;;;16.60;74.30;;;15.68;85.85;98541.53;5004357;28;20057;-73
2022/03/25 09:23:35;;;;;;;48.95;34.25;;;16.50;73.80;;;16.12;84.98;98537.69;5001573;28;20062;-73
2022/03/25 09:26:02;;;;;;;43.85;32.85;;;16.40;74.30;;;16.87;83.05;98542.56;5003174;28;20042;-74
2022/03/25 09:28:30;;;;;;;45.33;33.45;;;16.20;74.80;;;15.98;84.90;98538.38;5007025;28;20057;-74
2022/03/25 09:30:57;;;;;;;50.05;34.17;;;16.30;74.30;;;16.17;83.38;98547.03;5000835;28;20129;-74
2022/03/25 09:33:26;;;;;;;46.65;32.80;;;16.50;73.70;;;16.39;85.14;98545.94;4989827;28;20155;-73
2022/03/25 09:35:53;;;;;;;47.92;33.15;;;16.60;73.80;;;17.29;82.42;98546.47;5002130;28;20152;-74
2022/03/25 09:38:20;;;;;;;44.50;33.75;;;16.70;73.80;;;16.97;81.96;98550.81;5004345;28;20128;-73
2022/03/25 09:40:48;;;;;;;48.20;34.53;;;16.70;72.70;;;17.11;81.63;98544.84;5004962;28;20500;-72
2022/03/25 09:43:19;;;;;;;45.10;34.25;;;16.70;72.80;;;16.22;84.26;98544.19;4999712;28;20077;-73
2022/03/25 09:45:46;;;;;;;48.35;33.10;;;16.80;72.80;;;15.92;84.85;98546.50;5006701;28;20137;-73
2022/03/25 09:48:13;;;;;;;42.97;31.42;;;16.70;72.70;;;17.11;83.94;98532.56;5008683;28;20045;-73
2022/03/25 09:50:41;;;;;;;44.85;33.08;;;16.70;73.50;;;17.44;80.54;98551.78;5003597;28;20422;-72
2022/03/25 09:53:31;;;;;;;46.15;31.77;;;16.90;72.70;;;17.10;81.86;98549.22;5002932;28;20054;-72
2022/03/25 09:55:58;;;;;;;46.15;32.83;;;17.00;71.80;;;17.14;80.51;98540.25;5000111;28;20168;-73
2022/03/25 09:58:28;;;;;;;47.20;32.83;;;16.80;72.00;;;18.03;79.49;98542.34;5004391;28;20050;-73
2022/03/25 10:00:55;;;;;;;48.53;32.72;;;17.20;72.00;;;18.06;78.56;98547.41;5004208;28;20096;-73
2022/03/25 10:03:41;;;;;;;49.65;32.97;;;17.30;72.30;;;17.41;82.79;98551.97;5002063;28;20526;-73
2022/03/25 10:06:11;;;;;;;45.33;32.55;;;17.20;72.70;;;17.58;82.69;98540.53;5021348;28;20069;-73
2022/03/25 10:09:01;;;;;;;47.30;33.00;;;17.40;72.50;;;17.93;80.18;98543.84;5002435;28;20124;-73
2022/03/25 10:11:32;;;;;;;43.83;30.98;;;17.60;71.50;;;18.79;80.24;98534.38;5000275;28;20554;-73
2022/03/25 10:14:27;;;;;;;49.33;32.85;;;18.00;72.30;;;19.36;76.65;98537.91;5003674;28;20484;-73
2022/03/25 10:16:55;;;;;;;51.20;34.65;;;18.40;71.50;;;18.35;75.33;98540.47;5000311;28;20057;-74
2022/03/25 10:19:28;;;;;;;44.60;33.80;;;18.20;69.70;;;18.07;78.25;98540.41;5005485;28;20106;-74
2022/03/25 10:22:01;;;;;;;45.60;33.72;;;17.90;70.50;;;17.63;76.98;98538.47;5002950;28;20523;-74